Time;durP1;ratioP1;P1;durP2;ratioP2;P2;SDS_P1;SDS_P2;PMS_P1;PMS_P2;Temp;Humidity;BMP_temperature;BMP_pressure;BME280_temperature;BME280_humidity;BME280_pressure;Samples;Min_cycle;Max_cycle;Signal;HPM_P1;HPM_P2
2022/08/24 00:00:50;;;;;;;17.10;8.73;;;;;;;;;;5051198;28;20045;-74
2022/08/24 00:03:36;;;;;;;10.90;8.70;;;;;;;;;;5051621;28;20046;-74
2022/08/24 00:06:22;;;;;;;9.30;7.35;;;;;;;;;;5050036;28;20091;-74
2022/08/24 00:09:06;;;;;;;10.40;8.07;;;;;;;;;;5055508;28;20037;-73
2022/08/24 00:11:51;;;;;;;11.65;8.40;;;;;;;;;;5055433;28;20052;-74
2022/08/24 00:14:36;;;;;;;11.20;8.07;;;;;;;;;;5051883;28;20037;-74
2022/08/24 00:17:20;;;;;;;13.52;8.13;;;;;;;;;;5051700;28;20045;-73
2022/08/24 00:20:06;;;;;;;11.75;8.57;;;;;;;;;;5052739;28;20707;-73
2022/08/24 00:22:50;;;;;;;15.48;9.88;;;;;;;;;;5048766;28;20049;-74
2022/08/24 00:25:35;;;;;;;11.10;8.25;;;;;;;;;;5050405;28;20048;-73
2022/08/24 00:28:20;;;;;;;15.13;9.02;;;;;;;;;;5036797;28;20041;-73
2022/08/24 00:31:05;;;;;;;10.68;7.78;;;;;;;;;;5054487;28;20044;-74
2022/08/24 00:33:50;;;;;;;12.23;9.25;;;;;;;;;;5052432;28;20040;-73
2022/08/24 00:36:34;;;;;;;10.50;7.80;;;;;;;;;;5050520;28;20483;-74
2022/08/24 00:39:19;;;;;;;9.13;7.40;;;;;;;;;;5050972;28;20049;-73
2022/08/24 00:42:04;;;;;;;10.10;8.43;;;;;;;;;;5051280;28;20044;-73
2022/08/24 00:44:49;;;;;;;13.00;8.68;;;;;;;;;;5052256;28;20052;-72
2022/08/24 00:47:39;;;;;;;9.88;8.10;;;;;;;;;;5067581;28;20092;-72
2022/08/24 00:50:38;;;;;;;10.13;8.85;;;;;;;;;;5071267;28;20136;-72
2022/08/24 00:53:24;;;;;;;10.63;8.77;;;;;;;;;;5070729;28;20110;-72
2022/08/24 00:56:35;;;;;;;12.27;9.60;;;;;;;;;;5073494;28;20423;-72
2022/08/24 00:59:22;;;;;;;14.55;9.43;;;;;;;;;;5071680;28;20506;-72
2022/08/24 01:02:10;;;;;;;10.57;8.98;;;;;;;;;;5059340;28;20477;-73
2022/08/24 01:04:56;;;;;;;12.80;9.55;;;;;;;;;;5074291;28;20479;-73
2022/08/24 01:07:41;;;;;;;11.35;9.20;;;;;;;;;;5075488;28;20048;-73
2022/08/24 01:10:27;;;;;;;13.45;11.23;;;;;;;;;;5087098;28;20039;-73
2022/08/24 01:13:13;;;;;;;12.60;11.23;;;;;;;;;;5086230;28;20052;-73
2022/08/24 01:15:59;;;;;;;14.02;12.50;;;;;;;;;;5088913;28;20487;-73
2022/08/24 01:18:50;;;;;;;14.25;11.77;;;;;;;;;;5087752;28;20120;-73
2022/08/24 01:21:57;;;;;;;14.63;11.75;;;;;;;;;;5088631;28;20127;-73
2022/08/24 01:24:42;;;;;;;15.35;11.98;;;;;;;;;;5083821;28;20375;-73
2022/08/24 01:27:28;;;;;;;14.73;12.18;;;;;;;;;;5091068;28;20043;-74
2022/08/24 01:30:14;;;;;;;14.95;12.80;;;;;;;;;;5089647;28;20486;-73
2022/08/24 01:33:00;;;;;;;17.42;12.38;;;;;;;;;;5079611;28;20128;-73
2022/08/24 01:35:45;;;;;;;17.92;13.20;;;;;;;;;;5088038;28;20568;-73
2022/08/24 01:38:30;;;;;;;16.17;13.23;;;;;;;;;;5089635;28;20040;-73
2022/08/24 01:41:15;;;;;;;17.80;15.15;;;;;;;;;;5079127;28;20048;-73
2022/08/24 01:44:00;;;;;;;19.55;15.55;;;;;;;;;;5088996;28;20142;-73
2022/08/24 01:46:47;;;;;;;16.92;14.75;;;;;;;;;;5082543;28;20056;-73
2022/08/24 01:49:34;;;;;;;20.30;16.27;;;;;;;;;;5068606;28;20135;-74
2022/08/24 01:52:20;;;;;;;23.05;16.75;;;;;;;;;;5068450;28;20123;-73
2022/08/24 01:55:06;;;;;;;21.02;17.25;;;;;;;;;;5067274;28;20128;-73
2022/08/24 01:57:51;;;;;;;22.55;16.88;;;;;;;;;;5068722;28;20055;-73
2022/08/24 02:00:36;;;;;;;24.77;17.25;;;;;;;;;;5070011;28;20426;-72
2022/08/24 02:03:21;;;;;;;19.48;16.50;;;;;;;;;;5054182;28;20045;-73
2022/08/24 02:06:05;;;;;;;21.23;18.15;;;;;;;;;;5069301;28;20048;-73
2022/08/24 02:08:50;;;;;;;20.65;16.25;;;;;;;;;;5068787;28;20191;-73
2022/08/24 02:11:36;;;;;;;20.60;18.05;;;;;;;;;;5078931;28;20566;-74
2022/08/24 02:14:21;;;;;;;20.17;16.42;;;;;;;;;;5052491;28;20282;-73
2022/08/24 02:17:07;;;;;;;19.08;16.55;;;;;;;;;;5067558;28;20525;-74
2022/08/24 02:19:51;;;;;;;23.13;17.73;;;;;;;;;;5063702;28;20102;-74
2022/08/24 02:22:36;;;;;;;19.08;16.45;;;;;;;;;;5063992;28;20048;-74
2022/08/24 02:25:21;;;;;;;21.05;16.25;;;;;;;;;;5067710;28;20088;-74
2022/08/24 02:28:06;;;;;;;22.05;16.00;;;;;;;;;;5069278;28;20044;-73
2022/08/24 02:30:50;;;;;;;18.05;15.07;;;;;;;;;;5063026;28;20053;-74
2022/08/24 02:33:35;;;;;;;22.02;16.10;;;;;;;;;;5057012;28;20044;-74
2022/08/24 02:36:22;;;;;;;19.55;14.77;;;;;;;;;;5067020;28;20056;-74
2022/08/24 02:39:08;;;;;;;23.17;15.70;;;;;;;;;;5067225;28;20127;-74
2022/08/24 02:41:52;;;;;;;16.20;14.05;;;;;;;;;;5049918;28;20696;-73
2022/08/24 02:44:37;;;;;;;18.35;15.45;;;;;;;;;;5068721;28;20067;-74
2022/08/24 02:47:22;;;;;;;16.55;13.30;;;;;;;;;;5086302;28;20481;-74
2022/08/24 02:50:08;;;;;;;16.77;14.35;;;;;;;;;;5091837;28;20044;-73
2022/08/24 02:52:53;;;;;;;15.18;13.05;;;;;;;;;;5080085;28;20048;-74
2022/08/24 02:55:39;;;;;;;14.80;13.10;;;;;;;;;;5083326;28;20048;-74
2022/08/24 02:58:24;;;;;;;17.00;12.90;;;;;;;;;;5090310;28;20036;-74
2022/08/24 03:01:10;;;;;;;13.60;12.05;;;;;;;;;;5090263;28;20186;-73
2022/08/24 03:03:56;;;;;;;18.42;14.65;;;;;;;;;;5088823;28;20190;-73
2022/08/24 03:06:41;;;;;;;18.50;13.07;;;;;;;;;;5085159;28;20078;-74
2022/08/24 03:09:25;;;;;;;18.17;12.73;;;;;;;;;;5079866;28;20127;-74
2022/08/24 03:12:10;;;;;;;18.45;14.15;;;;;;;;;;5078168;28;20043;-73
2022/08/24 03:14:55;;;;;;;17.73;12.93;;;;;;;;;;5074562;28;20052;-73
2022/08/24 03:17:40;;;;;;;17.65;14.98;;;;;;;;;;5088471;28;20077;-73
2022/08/24 03:20:25;;;;;;;15.88;13.23;;;;;;;;;;5081947;28;20070;-73
2022/08/24 03:23:10;;;;;;;18.27;15.50;;;;;;;;;;5089149;28;20055;-74
2022/08/24 03:25:55;;;;;;;18.20;14.23;;;;;;;;;;5086182;28;20044;-74
2022/08/24 03:28:41;;;;;;;20.60;14.38;;;;;;;;;;5073132;28;20046;-74
2022/08/24 03:31:26;;;;;;;21.77;15.60;;;;;;;;;;5085282;28;20047;-74
2022/08/24 03:34:12;;;;;;;18.60;15.68;;;;;;;;;;5087330;28;20051;-73
2022/08/24 03:36:57;;;;;;;22.02;15.90;;;;;;;;;;5082091;28;20490;-74
2022/08/24 03:39:42;;;;;;;23.10;18.05;;;;;;;;;;5087271;28;20036;-73
2022/08/24 03:42:26;;;;;;;24.23;18.45;;;;;;;;;;5077941;28;20047;-73
2022/08/24 03:45:11;;;;;;;23.50;18.70;;;;;;;;;;5088462;28;20036;-73
2022/08/24 03:47:56;;;;;;;22.92;17.95;;;;;;;;;;5069371;28;20056;-73
2022/08/24 03:50:45;;;;;;;21.75;15.75;;;;;;;;;;5060250;28;20053;-73
2022/08/24 03:53:29;;;;;;;18.00;16.10;;;;;;;;;;5067488;28;20433;-73
2022/08/24 03:56:14;;;;;;;18.55;15.15;;;;;;;;;;5066696;28;20050;-73
2022/08/24 03:58:59;;;;;;;25.27;19.35;;;;;;;;;;5067806;28;20040;-73
2022/08/24 04:01:43;;;;;;;22.38;17.77;;;;;;;;;;5066860;28;20045;-74
2022/08/24 04:04:29;;;;;;;22.00;18.58;;;;;;;;;;5068262;28;20044;-73
2022/08/24 04:07:13;;;;;;;21.88;17.92;;;;;;;;;;5067175;28;20485;-73
2022/08/24 04:09:58;;;;;;;23.90;18.45;;;;;;;;;;5062560;28;20053;-73
2022/08/24 04:12:44;;;;;;;24.10;18.08;;;;;;;;;;5064963;28;20526;-73
2022/08/24 04:15:30;;;;;;;20.48;17.92;;;;;;;;;;5052493;28;20049;-73
2022/08/24 04:18:15;;;;;;;20.50;18.23;;;;;;;;;;5064301;28;20041;-73
2022/08/24 04:21:00;;;;;;;23.48;18.55;;;;;;;;;;5066462;28;20080;-73
2022/08/24 04:23:44;;;;;;;19.27;16.77;;;;;;;;;;5064237;28;20044;-73
2022/08/24 04:26:30;;;;;;;21.58;18.48;;;;;;;;;;5059881;28;20037;-73
2022/08/24 04:29:16;;;;;;;24.88;17.83;;;;;;;;;;5066780;28;20486;-73
2022/08/24 04:32:01;;;;;;;22.42;18.30;;;;;;;;;;5064389;28;20401;-73
2022/08/24 04:34:46;;;;;;;23.55;19.85;;;;;;;;;;5071763;28;20068;-73
2022/08/24 04:37:30;;;;;;;24.02;19.83;;;;;;;;;;5071004;28;20041;-73
2022/08/24 04:40:15;;;;;;;22.65;18.85;;;;;;;;;;5070377;28;20041;-72
2022/08/24 04:43:00;;;;;;;23.50;20.08;;;;;;;;;;5065896;28;20051;-73
2022/08/24 04:45:46;;;;;;;28.30;21.17;;;;;;;;;;5061083;28;20051;-73
2022/08/24 04:48:32;;;;;;;22.90;19.55;;;;;;;;;;5091662;28;20489;-73
2022/08/24 04:51:18;;;;;;;23.42;19.38;;;;;;;;;;5091456;28;20036;-72
2022/08/24 04:54:02;;;;;;;23.77;19.38;;;;;;;;;;5095356;28;20052;-73
2022/08/24 04:56:47;;;;;;;27.13;21.52;;;;;;;;;;5090335;28;20486;-73
2022/08/24 04:59:32;;;;;;;27.98;21.60;;;;;;;;;;5091340;28;20051;-72
2022/08/24 05:02:17;;;;;;;26.05;21.42;;;;;;;;;;5091103;28;20496;-73
2022/08/24 05:05:01;;;;;;;26.23;21.55;;;;;;;;;;5091470;28;20044;-72
2022/08/24 05:07:46;;;;;;;24.95;21.67;;;;;;;;;;5088806;28;20036;-73
2022/08/24 05:10:31;;;;;;;29.88;23.50;;;;;;;;;;5089104;28;20056;-72
2022/08/24 05:13:18;;;;;;;25.95;20.60;;;;;;;;;;5073905;28;20048;-72
2022/08/24 05:16:07;;;;;;;27.77;23.50;;;;;;;;;;5076551;28;20039;-73
2022/08/24 05:18:53;;;;;;;30.08;23.08;;;;;;;;;;5086076;28;20051;-72
2022/08/24 05:21:38;;;;;;;26.13;21.98;;;;;;;;;;5090600;28;20051;-72
2022/08/24 05:24:23;;;;;;;27.60;23.05;;;;;;;;;;5087257;28;20054;-72
2022/08/24 05:27:08;;;;;;;26.80;21.27;;;;;;;;;;5101878;28;20046;-73
2022/08/24 05:29:53;;;;;;;31.63;24.10;;;;;;;;;;5079574;28;20619;-72
2022/08/24 05:32:39;;;;;;;31.63;23.10;;;;;;;;;;5083291;28;20185;-72
2022/08/24 05:35:23;;;;;;;27.33;21.52;;;;;;;;;;5081497;28;20052;-72
2022/08/24 05:38:08;;;;;;;28.52;22.75;;;;;;;;;;5089205;28;20382;-72
2022/08/24 05:40:53;;;;;;;28.92;21.85;;;;;;;;;;5082839;28;20452;-73
2022/08/24 05:43:38;;;;;;;28.60;22.52;;;;;;;;;;5089346;28;20032;-72
2022/08/24 05:46:22;;;;;;;36.05;24.75;;;;;;;;;;5083900;28;20044;-72
2022/08/24 05:49:07;;;;;;;27.73;20.60;;;;;;;;;;5074831;28;20044;-72
2022/08/24 05:51:52;;;;;;;26.88;20.23;;;;;;;;;;5085755;28;20077;-72
2022/08/24 05:54:37;;;;;;;27.73;23.25;;;;;;;;;;5086349;28;20490;-72
2022/08/24 05:57:23;;;;;;;29.77;22.13;;;;;;;;;;5071262;28;20062;-72
2022/08/24 06:00:10;;;;;;;26.75;21.25;;;;;;;;;;5087843;28;20526;-72
2022/08/24 06:02:55;;;;;;;23.10;19.90;;;;;;;;;;5085438;28;20044;-72
2022/08/24 06:05:41;;;;;;;27.30;19.42;;;;;;;;;;5089396;28;20459;-73
2022/08/24 06:08:25;;;;;;;29.17;21.38;;;;;;;;;;5084348;28;20280;-72
2022/08/24 06:11:10;;;;;;;31.17;24.52;;;;;;;;;;5084769;28;20048;-72
2022/08/24 06:13:56;;;;;;;27.15;22.40;;;;;;;;;;5073616;28;20059;-73
2022/08/24 06:16:42;;;;;;;26.33;21.02;;;;;;;;;;5087198;28;20554;-72
2022/08/24 06:19:27;;;;;;;26.40;20.73;;;;;;;;;;5083935;28;20140;-72
2022/08/24 06:22:14;;;;;;;26.02;18.88;;;;;;;;;;5087516;28;20122;-72
2022/08/24 06:28:05;;;;;;;22.67;19.77;;;;;;;;;;5070401;28;20044;-72
2022/08/24 06:31:00;;;;;;;25.45;20.13;;;;;;;;;;5085660;28;20642;-72
2022/08/24 06:33:47;;;;;;;25.38;20.02;;;;;;;;;;5070503;28;20045;-72
2022/08/24 06:36:34;;;;;;;25.52;21.25;;;;;;;;;;5072535;28;20095;-72
2022/08/24 06:39:20;;;;;;;26.85;20.92;;;;;;;;;;5081742;28;20274;-73
2022/08/24 06:42:07;;;;;;;28.83;20.13;;;;;;;;;;5070381;28;20067;-72
2022/08/24 06:44:53;;;;;;;28.50;23.17;;;;;;;;;;5074462;28;20116;-72
2022/08/24 06:47:40;;;;;;;27.67;20.35;;;;;;;;;;5084712;27;20036;-72
2022/08/24 06:50:27;;;;;;;29.52;19.75;;;;;;;;;;5074080;28;20052;-72
2022/08/24 06:53:13;;;;;;;25.48;20.38;;;;;;;;;;5072447;28;20047;-72
2022/08/24 06:56:00;;;;;;;27.05;20.52;;;;;;;;;;5097208;27;20035;-72
2022/08/24 06:58:47;;;;;;;26.63;21.35;;;;;;;;;;5078614;28;20054;-72
2022/08/24 07:01:33;;;;;;;24.25;20.15;;;;;;;;;;5073967;28;20047;-72
2022/08/24 07:04:20;;;;;;;24.52;20.00;;;;;;;;;;5077437;28;20105;-72
2022/08/24 07:07:06;;;;;;;28.95;20.10;;;;;;;;;;5075708;28;20044;-72
2022/08/24 07:09:53;;;;;;;28.92;19.20;;;;;;;;;;5077964;28;20048;-72
2022/08/24 07:12:39;;;;;;;22.13;17.13;;;;;;;;;;5077521;28;20040;-72
2022/08/24 07:15:26;;;;;;;23.70;17.90;;;;;;;;;;5059787;28;20048;-72
2022/08/24 07:18:15;;;;;;;22.08;16.48;;;;;;;;;;5082523;28;20568;-72
2022/08/24 07:21:02;;;;;;;22.70;16.15;;;;;;;;;;5083651;28;20113;-72
2022/08/24 07:23:49;;;;;;;22.13;16.42;;;;;;;;;;5081637;28;20101;-72
2022/08/24 07:26:37;;;;;;;20.50;16.10;;;;;;;;;;5067525;28;20489;-72
2022/08/24 07:29:24;;;;;;;21.33;16.27;;;;;;;;;;5073510;28;20036;-73
2022/08/24 07:32:11;;;;;;;18.27;15.50;;;;;;;;;;5077066;28;21959;-72
2022/08/24 07:34:57;;;;;;;21.30;15.38;;;;;;;;;;5073466;28;20044;-72
2022/08/24 07:37:43;;;;;;;23.30;16.33;;;;;;;;;;5074300;28;20044;-72
2022/08/24 07:40:30;;;;;;;23.48;16.73;;;;;;;;;;5081406;28;20031;-72
2022/08/24 07:43:16;;;;;;;18.75;16.70;;;;;;;;;;5050656;28;20055;-72
2022/08/24 07:46:04;;;;;;;20.30;16.00;;;;;;;;;;5083503;28;20090;-72
2022/08/24 07:48:51;;;;;;;20.38;15.77;;;;;;;;;;5079885;28;20052;-72
2022/08/24 07:51:37;;;;;;;20.98;15.75;;;;;;;;;;5082836;28;20811;-72
2022/08/24 07:54:24;;;;;;;18.45;16.00;;;;;;;;;;5083356;28;20409;-72
2022/08/24 07:57:11;;;;;;;18.88;15.57;;;;;;;;;;5058645;28;20067;-72
2022/08/24 08:00:01;;;;;;;21.17;16.63;;;;;;;;;;5070671;28;20052;-73
2022/08/24 08:02:48;;;;;;;17.50;13.27;;;;;;;;;;5070027;28;20044;-72
2022/08/24 08:05:37;;;;;;;19.20;13.65;;;;;;;;;;5053751;28;20102;-72
2022/08/24 08:08:25;;;;;;;15.27;12.05;;;;;;;;;;5052227;28;20056;-72
2022/08/24 08:11:12;;;;;;;20.05;13.32;;;;;;;;;;5057926;28;20052;-72
2022/08/24 08:13:58;;;;;;;18.98;12.82;;;;;;;;;;5052673;28;20059;-73
2022/08/24 08:16:45;;;;;;;14.15;12.38;;;;;;;;;;5074484;28;20043;-72
2022/08/24 08:19:32;;;;;;;17.33;13.70;;;;;;;;;;5068028;28;20044;-72
2022/08/24 08:25:24;;;;;;;12.07;10.40;;;;;;;;;;5063883;28;20484;-71
2022/08/24 08:28:10;;;;;;;15.65;11.23;;;;;;;;;;5057549;28;20062;-72
2022/08/24 08:30:57;;;;;;;11.50;10.25;;;;;;;;;;5054763;28;20063;-72
2022/08/24 08:33:43;;;;;;;13.93;11.32;;;;;;;;;;5068499;28;20049;-71
2022/08/24 08:36:30;;;;;;;14.93;11.02;;;;;;;;;;5068189;28;20558;-72
2022/08/24 08:39:17;;;;;;;15.20;11.05;;;;;;;;;;5069987;28;20517;-72
2022/08/24 08:42:04;;;;;;;13.88;9.13;;;;;;;;;;5042795;28;20106;-71
2022/08/24 08:45:01;;;;;;;15.27;11.23;;;;;;;;;;5072567;28;20044;-71
2022/08/24 08:48:02;;;;;;;11.57;9.13;;;;;;;;;;5070249;28;20055;-72
2022/08/24 08:51:01;;;;;;;12.32;8.70;;;;;;;;;;5068973;28;20506;-72
2022/08/24 08:54:01;;;;;;;14.55;10.55;;;;;;;;;;5067652;28;20090;-72
2022/08/24 08:57:00;;;;;;;14.25;9.82;;;;;;;;;;5066319;28;20040;-72
2022/08/24 09:00:05;;;;;;;12.25;10.18;;;;;;;;;;5083010;28;20044;-72
2022/08/24 09:03:18;;;;;;;11.30;7.68;;;;;;;;;;5056499;28;20053;-72
2022/08/24 09:06:21;;;;;;;11.23;7.65;;;;;;;;;;5048998;28;20048;-73
2022/08/24 09:09:17;;;;;;;9.45;7.05;;;;;;;;;;5084975;28;20379;-72
2022/08/24 09:12:07;;;;;;;9.25;6.32;;;;;;;;;;5068556;28;20102;-72
2022/08/24 09:15:09;;;;;;;9.95;7.00;;;;;;;;;;5064952;28;20452;-72
2022/08/24 09:18:08;;;;;;;10.52;6.72;;;;;;;;;;5067245;28;20048;-72
2022/08/24 09:21:00;;;;;;;8.70;7.50;;;;;;;;;;5071136;28;20044;-72
2022/08/24 09:24:00;;;;;;;8.95;6.68;;;;;;;;;;5068478;28;20093;-72
2022/08/24 09:26:49;;;;;;;8.98;7.47;;;;;;;;;;5063107;28;20127;-72
2022/08/24 09:29:38;;;;;;;8.43;7.15;;;;;;;;;;5069047;28;20482;-72
2022/08/24 09:32:31;;;;;;;12.43;7.97;;;;;;;;;;5056405;28;20098;-72
2022/08/24 09:35:22;;;;;;;10.15;6.40;;;;;;;;;;5068703;28;20406;-72
2022/08/24 09:38:27;;;;;;;11.70;7.10;;;;;;;;;;5052991;28;20040;-72
2022/08/24 09:41:14;;;;;;;10.32;6.57;;;;;;;;;;5068822;28;20212;-72
2022/08/24 09:44:18;;;;;;;11.30;7.90;;;;;;;;;;5067731;28;20048;-72
2022/08/24 09:47:14;;;;;;;10.07;6.38;;;;;;;;;;5086590;28;20228;-72
2022/08/24 09:50:00;;;;;;;8.00;6.13;;;;;;;;;;5070158;28;20098;-72
2022/08/24 09:53:05;;;;;;;7.63;6.13;;;;;;;;;;5072697;28;20181;-72
2022/08/24 09:55:51;;;;;;;8.57;4.78;;;;;;;;;;5090637;28;20517;-73
2022/08/24 09:58:38;;;;;;;8.05;5.72;;;;;;;;;;5068512;28;20390;-72
2022/08/24 10:01:46;;;;;;;9.45;6.18;;;;;;;;;;5068832;28;20101;-72
2022/08/24 10:04:36;;;;;;;8.50;5.18;;;;;;;;;;5081513;28;20056;-72
2022/08/24 10:07:35;;;;;;;6.03;5.43;;;;;;;;;;5067099;28;20040;-72
2022/08/24 10:10:22;;;;;;;7.38;4.70;;;;;;;;;;5071413;28;20059;-72
2022/08/24 10:13:08;;;;;;;7.53;5.18;;;;;;;;;;5072623;28;20040;-72
2022/08/24 10:15:55;;;;;;;5.65;4.65;;;;;;;;;;5062335;28;20469;-71
2022/08/24 10:18:44;;;;;;;10.80;5.82;;;;;;;;;;5071223;28;20044;-71
2022/08/24 10:21:56;;;;;;;8.13;5.35;;;;;;;;;;5076353;28;20532;-72
2022/08/24 10:24:42;;;;;;;7.95;4.50;;;;;;;;;;5056731;28;20102;-72
2022/08/24 10:27:43;;;;;;;7.95;5.30;;;;;;;;;;5071978;28;20497;-72
2022/08/24 10:30:49;;;;;;;5.07;4.10;;;;;;;;;;5084832;28;20624;-71
2022/08/24 10:33:53;;;;;;;8.80;5.93;;;;;;;;;;5080844;28;20063;-72
2022/08/24 10:36:43;;;;;;;7.55;4.97;;;;;;;;;;5071605;28;20040;-71
2022/08/24 10:39:42;;;;;;;6.40;5.38;;;;;;;;;;5071945;28;20048;-71
2022/08/24 10:45:56;;;;;;;8.05;4.50;;;;;;;;;;5062902;28;20068;-71
2022/08/24 10:48:42;;;;;;;6.95;4.38;;;;;;;;;;5045726;28;20463;-71
2022/08/24 10:51:44;;;;;;;5.60;3.58;;;;;;;;;;5053090;28;20052;-71
2022/08/24 10:54:34;;;;;;;5.88;4.40;;;;;;;;;;5072752;28;20393;-71
2022/08/24 10:57:30;;;;;;;7.82;4.70;;;;;;;;;;5063022;28;20071;-71
2022/08/24 11:00:19;;;;;;;7.05;4.30;;;;;;;;;;5070606;28;20044;-71
2022/08/24 11:03:10;;;;;;;5.30;3.75;;;;;;;;;;5071284;28;20109;-71
2022/08/24 11:05:57;;;;;;;7.00;3.87;;;;;;;;;;5086977;28;20050;-71
2022/08/24 11:09:15;;;;;;;6.95;3.30;;;;;;;;;;5087245;28;20044;-71
2022/08/24 11:12:15;;;;;;;4.28;2.45;;;;;;;;;;5030834;28;20052;-72
2022/08/24 11:15:17;;;;;;;6.28;3.42;;;;;;;;;;5063601;28;20052;-71
2022/08/24 11:18:04;;;;;;;4.70;3.70;;;;;;;;;;5088710;28;20043;-71
2022/08/24 11:20:53;;;;;;;4.63;3.08;;;;;;;;;;5088402;28;20121;-71
2022/08/24 11:23:40;;;;;;;8.80;3.47;;;;;;;;;;5087572;28;20054;-71
2022/08/24 11:26:26;;;;;;;6.75;3.47;;;;;;;;;;5068677;28;20450;-71
2022/08/24 11:29:13;;;;;;;3.63;2.03;;;;;;;;;;5073192;28;20501;-71
2022/08/24 11:31:59;;;;;;;3.00;2.45;;;;;;;;;;5085596;28;20094;-71
2022/08/24 11:34:46;;;;;;;5.22;2.95;;;;;;;;;;5068174;28;20040;-72
2022/08/24 11:37:36;;;;;;;2.92;2.15;;;24.10;95.30;;;;;;5069000;28;20044;-71
2022/08/24 11:40:26;;;;;;;7.07;3.08;;;;;;;;;;5068830;28;20046;-72
2022/08/24 11:43:31;;;;;;;4.40;2.50;;;;;;;;;;5067917;28;20455;-71
2022/08/24 11:46:27;;;;;;;3.13;1.92;;;;;;;;;;5087424;28;20127;-71
2022/08/24 11:49:14;;;;;;;4.22;1.77;;;;;;;;;;5085621;28;20443;-71
2022/08/24 11:52:30;;;;;;;2.22;1.38;;;;;;;;;;5045358;28;20078;-71
2022/08/24 11:55:23;;;;;;;3.05;1.58;;;;;;;;;;5047951;28;20078;-71
2022/08/24 11:58:10;;;;;;;6.95;1.75;;;;;;;;;;5084391;28;20237;-71
2022/08/24 12:01:12;;;;;;;4.35;1.50;;;;;;;;;;5080745;28;20055;-70
2022/08/24 12:04:08;;;;;;;4.00;1.83;;;;;;;;;;5063542;28;20052;-71
2022/08/24 12:07:10;;;;;;;2.65;1.35;;;;;;;;;;5057682;28;20159;-71
2022/08/24 12:09:59;;;;;;;2.38;1.70;;;;;;;;;;5053138;28;20044;-71
2022/08/24 12:12:46;;;;;;;3.05;1.20;;;;;;;;;;5054878;28;20051;-70
2022/08/24 12:15:55;;;;;;;0.70;0.70;;;;;;;;;;5071828;28;20127;-71
2022/08/24 12:18:42;;;;;;;2.08;1.05;;;;;;;;;;5055487;28;20044;-71
2022/08/24 12:21:31;;;;;;;1.80;1.33;;;;;;;;;;5077077;28;20054;-71
2022/08/24 12:24:23;;;;;;;2.25;1.15;;;;;;;;;;5047093;28;20513;-71
2022/08/24 12:27:16;;;;;;;1.98;1.10;;;;;;;;;;5071174;28;20052;-71
2022/08/24 12:30:15;;;;;;;1.58;1.13;;;;;;;;;;5056051;28;20044;-71
2022/08/24 12:33:11;;;;;;;3.67;1.35;;;;;;;;;;5074354;28;20051;-71
2022/08/24 12:36:03;;;;;;;1.63;1.40;;;;;;;;;;5072132;28;20502;-71
2022/08/24 12:38:57;;;;;;;1.50;1.10;;;;;;;;;;5070100;28;20155;-71
2022/08/24 12:41:50;;;;;;;1.73;1.48;;;;;;;;;;5069305;28;20274;-71
2022/08/24 12:44:46;;;;;;;2.45;1.58;;;;;;;;;;5071983;28;20575;-71
2022/08/24 12:47:44;;;;;;;1.75;1.00;;;;;;;;;;5071442;28;20091;-71
2022/08/24 12:50:30;;;;;;;3.42;1.10;;;;;;;;;;5077050;28;20447;-71
2022/08/24 12:53:25;;;;;;;1.27;0.95;;;;;;;;;;5058241;28;20048;-71
2022/08/24 12:56:38;;;;;;;3.65;0.95;;;;;;;;;;5053475;28;20079;-71
2022/08/24 12:59:28;;;;;;;1.80;0.85;;;;;;;;;;5041489;28;20302;-71
2022/08/24 13:02:14;;;;;;;1.08;0.90;;;;;;;;;;5051687;28;20091;-71
2022/08/24 13:05:08;;;;;;;1.00;0.90;;;;;;;;;;5053070;28;20052;-71
2022/08/24 13:08:08;;;;;;;0.90;0.57;;;;;;;;;;5061814;28;20129;-71
2022/08/24 13:11:03;;;;;;;2.40;0.75;;;;;;;;;;5062310;28;20391;-71
2022/08/24 13:14:05;;;;;;;2.85;1.08;;;;;;;;;;5088103;28;20175;-71
2022/08/24 13:17:07;;;;;;;1.73;0.98;;;;;;;;;;5079598;28;20044;-71
2022/08/24 13:20:13;;;;;;;3.40;1.20;;;;;;;;;;5057817;28;20109;-71
2022/08/24 13:23:11;;;;;;;1.73;0.85;;;;;;;;;;5066995;28;20413;-71
2022/08/24 13:26:00;;;;;;;1.85;0.90;;;;;;;;;;5056299;28;20064;-71
2022/08/24 13:28:51;;;;;;;3.65;1.10;;;;;;;;;;5066185;28;20044;-71
2022/08/24 13:31:41;;;;;;;0.85;0.80;;;;;;;;;;5086591;28;20048;-71
2022/08/24 13:34:37;;;;;;;1.58;1.00;;;;;;;;;;5069146;28;20075;-71
2022/08/24 13:37:24;;;;;;;1.77;1.10;;;;;;;;;;5064400;28;20078;-71
2022/08/24 13:40:19;;;;;;;1.23;1.13;;;;;;;;;;5068155;28;20211;-71
2022/08/24 13:43:11;;;;;;;2.13;0.98;;;;;;;;;;5084290;28;20411;-71
2022/08/24 13:46:14;;;;;;;3.17;1.05;;;;;;;;;;5069543;28;20451;-71
2022/08/24 13:49:03;;;;;;;1.25;0.88;;;;;;;;;;5070068;28;20074;-71
2022/08/24 13:52:15;;;;;;;7.68;1.30;;;27.10;96.40;;;;;;5087154;28;20044;-72
2022/08/24 13:55:19;;;;;;;2.03;1.27;;;28.50;91.40;;;;;;5071918;28;20159;-71
2022/08/24 13:58:30;;;;;;;1.60;1.40;;;28.50;91.60;;;;;;5064108;28;20593;-71
2022/08/24 14:01:43;;;;;;;2.08;1.08;;;28.60;91.60;;;;;;5064684;28;20044;-71
2022/08/24 14:04:48;;;;;;;1.77;0.80;;;28.60;91.20;;;;;;5082614;28;20102;-72
2022/08/24 14:08:06;;;;;;;3.88;1.33;;;28.50;90.50;;;;;;5064016;28;20394;-71
2022/08/24 14:11:10;;;;;;;4.40;3.47;;;28.50;91.20;;;;;;5084548;28;20052;-72
2022/08/24 14:14:09;;;;;;;3.60;2.28;;;28.60;92.70;;;;;;5069371;28;20525;-72
2022/08/24 14:20:04;;;;;;;5.80;4.63;;;;;;;;;;5061114;28;20392;-72
2022/08/24 14:23:06;;;;;;;9.40;3.90;;;;;;;;;;5052500;28;20060;-72
2022/08/24 14:26:12;;;;;;;5.63;4.07;;;;;;;;;;5083878;28;20493;-72
2022/08/24 14:29:17;;;;;;;5.57;4.75;;;;;;;;;;5085239;28;20072;-72
2022/08/24 14:32:07;;;;;;;6.43;4.32;;;;;;;;;;5049574;28;20506;-71
2022/08/24 14:35:00;;;;;;;7.28;3.90;;;;;;;;;;5054390;28;20048;-72
2022/08/24 14:38:07;;;;;;;6.40;4.97;;;;;;;;;;5058993;28;20500;-72
2022/08/24 14:40:56;;;;;;;10.32;5.10;;;;;;;;;;5076340;28;20095;-70
2022/08/24 14:44:02;;;;;;;9.07;4.07;;;;;;;;;;5070304;28;20502;-70
2022/08/24 14:46:52;;;;;;;8.15;4.85;;;;;;;;;;5074253;28;20087;-70
2022/08/24 14:50:01;;;;;;;6.00;4.80;;;;;;;;;;5074652;28;20040;-70
2022/08/24 14:52:55;;;;;;;6.93;5.07;;;;;;;;;;5078420;28;20668;-70
2022/08/24 14:56:00;;;;;;;5.18;4.32;;;;;;;;;;5087737;28;20039;-70
2022/08/24 14:58:47;;;;;;;4.45;3.70;;;;;;;;;;5073474;28;20145;-70
2022/08/24 15:01:43;;;;;;;4.68;3.78;;;;;;;;;;5073046;28;20051;-70
2022/08/24 15:04:30;;;;;;;4.95;3.67;;;;;;;;;;5067360;28;20124;-70
2022/08/24 15:07:16;;;;;;;4.70;3.63;;;;;;;;;;5069798;28;20611;-71
2022/08/24 15:10:10;;;;;;;5.28;3.88;;;;;;;;;;5048033;28;20479;-70
2022/08/24 15:12:58;;;;;;;6.07;4.05;;;;;;;;;;5083258;28;20098;-71
2022/08/24 15:15:54;;;;;;;4.68;3.97;;;;;;;;;;5061192;28;20052;-71
2022/08/24 15:18:44;;;;;;;5.15;3.40;;;;;;;;;;5072155;28;20069;-71
2022/08/24 15:21:45;;;;;;;5.72;3.85;;;;;;;;;;5070514;28;20129;-71
2022/08/24 15:24:51;;;;;;;8.88;3.63;;;;;;;;;;5076748;28;20507;-71
2022/08/24 15:27:37;;;;;;;4.28;3.70;;;;;;;;;;5084889;28;20079;-71
2022/08/24 15:30:26;;;;;;;5.50;4.05;;;;;;;;;;5054279;28;20075;-70
2022/08/24 15:33:14;;;;;;;6.15;3.88;;;;;;;;;;5068486;28;20060;-71
2022/08/24 15:36:07;;;;;;;7.13;4.88;;;;;;;;;;5086113;28;20036;-71
2022/08/24 15:38:54;;;;;;;5.75;3.80;;;;;;;;;;5061609;28;20139;-71
2022/08/24 15:41:41;;;;;;;4.72;3.92;;;;;;;;;;5062374;28;20093;-71
2022/08/24 15:44:30;;;;;;;6.72;3.85;;;;;;;;;;5075798;28;20522;-71
2022/08/24 15:47:23;;;;;;;6.78;4.03;;;;;;;;;;5065736;28;20058;-71
2022/08/24 15:50:21;;;;;;;5.63;3.92;;;;;;;;;;5048829;28;20059;-71
2022/08/24 15:53:19;;;;;;;6.40;4.75;;;;;;;;;;5080573;28;20281;-71
2022/08/24 15:56:12;;;;;;;6.65;4.43;;;;;;;;;;5063852;28;20734;-71
2022/08/24 15:59:06;;;;;;;6.95;4.18;;;;;;;;;;5080203;28;20048;-71
2022/08/24 16:02:30;;;;;;;6.22;4.10;;;;;;;;;;5080728;28;20052;-71
2022/08/24 16:05:25;;;;;;;4.45;3.63;;;;;;;;;;5070958;28;20074;-73
2022/08/24 16:08:12;;;;;;;5.97;4.13;;;;;;;;;;5068065;28;20487;-72
2022/08/24 16:11:06;;;;;;;6.18;3.92;;;;;;;;;;5038366;28;20494;-72
2022/08/24 16:13:52;;;;;;;5.22;3.88;;;;;;;;;;5054422;28;20571;-72
2022/08/24 16:16:40;;;;;;;5.28;4.30;;;;;;;;;;5070118;28;20055;-73
2022/08/24 16:19:32;;;;;;;6.20;5.05;;;;;;;;;;5052551;28;20090;-73
2022/08/24 16:22:30;;;;;;;6.38;4.53;;;;;;;;;;5069561;28;20596;-73
2022/08/24 16:25:30;;;;;;;8.30;4.68;;;;;;;;;;5062496;28;20178;-73
2022/08/24 16:28:23;;;;;;;6.60;5.20;;;;;;;;;;5060157;28;20086;-73
2022/08/24 16:31:09;;;;;;;;;;;;;;;;;;5070145;28;20162;-73
2022/08/24 16:34:08;;;;;;;10.10;5.63;;;;;;;;;;5073615;28;19920;-73
2022/08/24 16:36:54;;;;;;;6.40;5.72;;;;;;;;;;5074737;28;20048;-73
2022/08/24 16:39:41;;;;;;;8.32;4.90;;;;;;;;;;5059974;28;20048;-73
2022/08/24 16:42:29;;;;;;;10.35;7.43;;;;;;;;;;5074327;28;20082;-73
2022/08/24 16:45:20;;;;;;;8.60;7.20;;;;;;;;;;5042201;28;20059;-73
2022/08/24 16:48:07;;;;;;;9.38;6.10;;;;;;;;;;5078749;28;20048;-72
2022/08/24 16:50:55;;;;;;;9.57;6.72;;;;;;;;;;5079619;28;20048;-73
2022/08/24 16:53:41;;;;;;;7.28;6.57;;;;;;;;;;5057443;28;20118;-73